sensor_id;sensor_type;location;lat;lon;timestamp;P1;durP1;ratioP1;P2;durP2;ratioP2
79490;SDS011;68950;53.098;18.032;2023-04-25T08:01:09;4.10;;;2.10;;
79490;SDS011;68950;53.098;18.032;2023-04-25T08:03:36;6.10;;;1.80;;
79490;SDS011;68950;53.098;18.032;2023-04-25T08:06:03;4.80;;;2.20;;
79490;SDS011;68950;53.098;18.032;2023-04-25T08:08:29;6.70;;;2.40;;
79490;SDS011;68950;53.098;18.032;2023-04-25T08:10:56;4.30;;;2.40;;
79490;SDS011;68950;53.098;18.032;2023-04-25T08:13:22;4.40;;;2.10;;
79490;SDS011;68950;53.098;18.032;2023-04-25T08:15:49;5.50;;;2.10;;
79490;SDS011;68950;53.098;18.032;2023-04-25T08:18:16;5.60;;;2.00;;
79490;SDS011;68950;53.098;18.032;2023-04-25T08:20:42;5.50;;;2.00;;
79490;SDS011;68950;53.098;18.032;2023-04-25T08:23:09;5.10;;;2.70;;
79490;SDS011;68950;53.098;18.032;2023-04-25T08:25:37;5.50;;;1.80;;
79490;SDS011;68950;53.098;18.032;2023-04-25T08:28:05;4.60;;;1.90;;
79490;SDS011;68950;53.098;18.032;2023-04-25T08:30:32;5.10;;;2.10;;
79490;SDS011;68950;53.098;18.032;2023-04-25T08:32:59;6.30;;;2.30;;
79490;SDS011;68950;53.098;18.032;2023-04-25T08:35:25;4.70;;;2.20;;
79490;SDS011;68950;53.098;18.032;2023-04-25T08:37:52;4.20;;;2.00;;
79490;SDS011;68950;53.098;18.032;2023-04-25T08:40:22;4.40;;;2.10;;
79490;SDS011;68950;53.098;18.032;2023-04-25T08:42:53;4.80;;;1.80;;
79490;SDS011;68950;53.098;18.032;2023-04-25T08:45:20;4.30;;;2.00;;
79490;SDS011;68950;53.098;18.032;2023-04-25T08:47:47;4.90;;;2.50;;
79490;SDS011;68950;53.098;18.032;2023-04-25T08:50:16;4.00;;;1.90;;
79490;SDS011;68950;53.098;18.032;2023-04-25T08:52:44;4.70;;;2.10;;
79490;SDS011;68950;53.098;18.032;2023-04-25T08:55:15;5.50;;;2.50;;
79490;SDS011;68950;53.098;18.032;2023-04-25T08:57:42;4.80;;;1.90;;
79490;SDS011;68950;53.098;18.032;2023-04-25T09:00:12;4.30;;;2.10;;
79490;SDS011;68950;53.098;18.032;2023-04-25T09:02:39;4.20;;;1.90;;
79490;SDS011;68950;53.098;18.032;2023-04-25T09:05:09;4.10;;;1.90;;
79490;SDS011;68950;53.098;18.032;2023-04-25T09:07:38;4.10;;;2.20;;
79490;SDS011;68950;53.098;18.032;2023-04-25T09:10:05;4.20;;;2.00;;
79490;SDS011;68950;53.098;18.032;2023-04-25T09:12:32;4.30;;;2.20;;
79490;SDS011;68950;53.098;18.032;2023-04-25T09:15:05;5.30;;;2.30;;
79490;SDS011;68950;53.098;18.032;2023-04-25T09:17:34;4.20;;;1.90;;
79490;SDS011;68950;53.098;18.032;2023-04-25T09:20:07;3.90;;;1.90;;
79490;SDS011;68950;53.098;18.032;2023-04-25T09:22:39;4.10;;;2.10;;
79490;SDS011;68950;53.098;18.032;2023-04-25T09:25:10;4.40;;;1.90;;
79490;SDS011;68950;53.098;18.032;2023-04-25T09:27:53;4.80;;;2.00;;
79490;SDS011;68950;53.098;18.032;2023-04-25T09:30:29;4.20;;;1.90;;
79490;SDS011;68950;53.098;18.032;2023-04-25T09:33:05;4.00;;;1.90;;
79490;SDS011;68950;53.098;18.032;2023-04-25T09:35:37;4.40;;;2.10;;
79490;SDS011;68950;53.098;18.032;2023-04-25T09:40:45;4.10;;;2.00;;
79490;SDS011;68950;53.098;18.032;2023-04-25T09:43:20;4.00;;;1.90;;
79490;SDS011;68950;53.098;18.032;2023-04-25T09:45:48;4.00;;;1.80;;
79490;SDS011;68950;53.098;18.032;2023-04-25T09:48:18;4.20;;;2.00;;
79490;SDS011;68950;53.098;18.032;2023-04-25T09:53:45;4.50;;;1.80;;
79490;SDS011;68950;53.098;18.032;2023-04-25T09:56:13;3.60;;;1.70;;
79490;SDS011;68950;53.098;18.032;2023-04-25T09:58:40;4.10;;;1.90;;
79490;SDS011;68950;53.098;18.032;2023-04-25T10:01:09;4.90;;;1.70;;
79490;SDS011;68950;53.098;18.032;2023-04-25T10:03:38;3.80;;;2.10;;
79490;SDS011;68950;53.098;18.032;2023-04-25T10:06:14;6.00;;;2.10;;
79490;SDS011;68950;53.098;18.032;2023-04-25T10:08:49;3.80;;;2.00;;
79490;SDS011;68950;53.098;18.032;2023-04-25T10:11:18;4.30;;;1.80;;
79490;SDS011;68950;53.098;18.032;2023-04-25T10:13:45;4.40;;;1.90;;
79490;SDS011;68950;53.098;18.032;2023-04-25T10:16:14;4.20;;;1.90;;
79490;SDS011;68950;53.098;18.032;2023-04-25T10:18:40;3.80;;;1.80;;
79490;SDS011;68950;53.098;18.032;2023-04-25T10:21:07;3.30;;;1.70;;
79490;SDS011;68950;53.098;18.032;2023-04-25T10:23:34;3.80;;;1.70;;
79490;SDS011;68950;53.098;18.032;2023-04-25T10:26:03;3.80;;;1.80;;
79490;SDS011;68950;53.098;18.032;2023-04-25T10:28:57;4.00;;;2.30;;
79490;SDS011;68950;53.098;18.032;2023-04-25T10:31:26;4.60;;;1.90;;
79490;SDS011;68950;53.098;18.032;2023-04-25T10:33:54;3.90;;;1.80;;
79490;SDS011;68950;53.098;18.032;2023-04-25T10:36:22;3.70;;;1.80;;
79490;SDS011;68950;53.098;18.032;2023-04-25T10:38:51;4.00;;;2.10;;
79490;SDS011;68950;53.098;18.032;2023-04-25T10:41:19;3.50;;;1.60;;
79490;SDS011;68950;53.098;18.032;2023-04-25T10:43:48;3.60;;;1.90;;
79490;SDS011;68950;53.098;18.032;2023-04-25T10:46:24;4.10;;;1.80;;
79490;SDS011;68950;53.098;18.032;2023-04-25T10:49:00;4.20;;;1.70;;
79490;SDS011;68950;53.098;18.032;2023-04-25T10:51:29;4.50;;;1.90;;
79490;SDS011;68950;53.098;18.032;2023-04-25T10:56:37;4.50;;;1.70;;
79490;SDS011;68950;53.098;18.032;2023-04-25T10:59:10;4.30;;;1.70;;
79490;SDS011;68950;53.098;18.032;2023-04-25T11:01:40;4.40;;;1.90;;
79490;SDS011;68950;53.098;18.032;2023-04-25T11:04:20;3.80;;;1.90;;
79490;SDS011;68950;53.098;18.032;2023-04-25T11:07:05;3.60;;;1.60;;
79490;SDS011;68950;53.098;18.032;2023-04-25T11:09:40;3.80;;;1.80;;
79490;SDS011;68950;53.098;18.032;2023-04-25T11:12:08;3.80;;;1.70;;
79490;SDS011;68950;53.098;18.032;2023-04-25T11:14:37;3.40;;;1.60;;
79490;SDS011;68950;53.098;18.032;2023-04-25T11:17:04;3.80;;;2.00;;
79490;SDS011;68950;53.098;18.032;2023-04-25T11:19:32;4.00;;;1.90;;
79490;SDS011;68950;53.098;18.032;2023-04-25T11:22:00;5.20;;;2.10;;
79490;SDS011;68950;53.098;18.032;2023-04-25T11:24:29;5.00;;;1.80;;
79490;SDS011;68950;53.098;18.032;2023-04-25T11:27:02;4.00;;;1.80;;
79490;SDS011;68950;53.098;18.032;2023-04-25T11:29:31;4.30;;;1.80;;
79490;SDS011;68950;53.098;18.032;2023-04-25T11:31:59;5.10;;;1.90;;
79490;SDS011;68950;53.098;18.032;2023-04-25T11:34:28;3.10;;;1.50;;
79490;SDS011;68950;53.098;18.032;2023-04-25T11:37:02;3.80;;;2.00;;
79490;SDS011;68950;53.098;18.032;2023-04-25T11:39:29;4.40;;;1.80;;
79490;SDS011;68950;53.098;18.032;2023-04-25T11:41:56;4.30;;;1.70;;
79490;SDS011;68950;53.098;18.032;2023-04-25T11:44:23;4.00;;;2.00;;
79490;SDS011;68950;53.098;18.032;2023-04-25T11:46:50;3.70;;;1.70;;
79490;SDS011;68950;53.098;18.032;2023-04-25T11:49:16;4.40;;;1.90;;
79490;SDS011;68950;53.098;18.032;2023-04-25T11:51:47;4.40;;;2.00;;
79490;SDS011;68950;53.098;18.032;2023-04-25T11:54:15;4.30;;;2.10;;
79490;SDS011;68950;53.098;18.032;2023-04-25T11:56:43;3.60;;;1.80;;
79490;SDS011;68950;53.098;18.032;2023-04-25T11:59:11;5.10;;;1.90;;
79490;SDS011;68950;53.098;18.032;2023-04-25T12:01:47;4.00;;;1.60;;
79490;SDS011;68950;53.098;18.032;2023-04-25T12:04:19;3.50;;;1.50;;
79490;SDS011;68950;53.098;18.032;2023-04-25T12:06:52;4.50;;;2.00;;
79490;SDS011;68950;53.098;18.032;2023-04-25T12:09:28;3.50;;;1.90;;
79490;SDS011;68950;53.098;18.032;2023-04-25T12:12:00;3.60;;;1.80;;
79490;SDS011;68950;53.098;18.032;2023-04-25T12:14:33;3.40;;;1.80;;
79490;SDS011;68950;53.098;18.032;2023-04-25T12:17:02;3.40;;;1.90;;
79490;SDS011;68950;53.098;18.032;2023-04-25T12:19:34;4.00;;;1.70;;
79490;SDS011;68950;53.098;18.032;2023-04-25T12:22:03;4.30;;;2.00;;
79490;SDS011;68950;53.098;18.032;2023-04-25T12:24:46;3.50;;;1.70;;
79490;SDS011;68950;53.098;18.032;2023-04-25T12:27:15;4.20;;;2.10;;
79490;SDS011;68950;53.098;18.032;2023-04-25T12:29:54;3.60;;;1.90;;
79490;SDS011;68950;53.098;18.032;2023-04-25T12:32:21;3.90;;;1.90;;
79490;SDS011;68950;53.098;18.032;2023-04-25T12:34:48;3.70;;;1.90;;
79490;SDS011;68950;53.098;18.032;2023-04-25T12:37:15;3.70;;;1.90;;
79490;SDS011;68950;53.098;18.032;2023-04-25T12:39:42;4.20;;;1.80;;
79490;SDS011;68950;53.098;18.032;2023-04-25T12:42:09;3.50;;;1.90;;
79490;SDS011;68950;53.098;18.032;2023-04-25T12:44:38;4.10;;;1.80;;
79490;SDS011;68950;53.098;18.032;2023-04-25T12:47:05;4.70;;;2.00;;
79490;SDS011;68950;53.098;18.032;2023-04-25T12:49:32;3.90;;;1.70;;
79490;SDS011;68950;53.098;18.032;2023-04-25T12:51:59;3.80;;;1.70;;
79490;SDS011;68950;53.098;18.032;2023-04-25T12:54:26;3.60;;;1.80;;
79490;SDS011;68950;53.098;18.032;2023-04-25T12:56:52;5.20;;;1.70;;
79490;SDS011;68950;53.098;18.032;2023-04-25T12:59:19;4.00;;;1.70;;
79490;SDS011;68950;53.098;18.032;2023-04-25T13:01:47;4.00;;;1.70;;
79490;SDS011;68950;53.098;18.032;2023-04-25T13:04:14;3.40;;;1.70;;
79490;SDS011;68950;53.098;18.032;2023-04-25T13:06:41;3.40;;;1.50;;
79490;SDS011;68950;53.098;18.032;2023-04-25T13:09:08;3.90;;;1.80;;
79490;SDS011;68950;53.098;18.032;2023-04-25T13:11:34;3.70;;;1.80;;
79490;SDS011;68950;53.098;18.032;2023-04-25T13:14:01;3.70;;;1.70;;
79490;SDS011;68950;53.098;18.032;2023-04-25T13:16:28;4.20;;;1.90;;
79490;SDS011;68950;53.098;18.032;2023-04-25T13:18:55;3.60;;;1.70;;
79490;SDS011;68950;53.098;18.032;2023-04-25T13:21:22;5.90;;;2.00;;
79490;SDS011;68950;53.098;18.032;2023-04-25T13:23:49;3.60;;;1.80;;
79490;SDS011;68950;53.098;18.032;2023-04-25T13:26:16;3.70;;;1.90;;
79490;SDS011;68950;53.098;18.032;2023-04-25T13:28:43;3.50;;;1.60;;
79490;SDS011;68950;53.098;18.032;2023-04-25T13:31:09;4.40;;;1.80;;
79490;SDS011;68950;53.098;18.032;2023-04-25T13:33:36;3.30;;;1.50;;
79490;SDS011;68950;53.098;18.032;2023-04-25T13:36:03;3.50;;;1.80;;
79490;SDS011;68950;53.098;18.032;2023-04-25T13:38:30;3.70;;;1.50;;
79490;SDS011;68950;53.098;18.032;2023-04-25T13:40:56;3.20;;;1.60;;
79490;SDS011;68950;53.098;18.032;2023-04-25T13:43:23;3.70;;;1.90;;
79490;SDS011;68950;53.098;18.032;2023-04-25T13:45:50;3.50;;;1.60;;
79490;SDS011;68950;53.098;18.032;2023-04-25T13:48:18;4.50;;;2.30;;
79490;SDS011;68950;53.098;18.032;2023-04-25T13:50:45;3.40;;;1.50;;
79490;SDS011;68950;53.098;18.032;2023-04-25T13:53:12;4.00;;;1.50;;
79490;SDS011;68950;53.098;18.032;2023-04-25T13:55:39;3.30;;;1.50;;
79490;SDS011;68950;53.098;18.032;2023-04-25T13:58:06;4.00;;;1.60;;
79490;SDS011;68950;53.098;18.032;2023-04-25T14:00:37;4.50;;;1.80;;
79490;SDS011;68950;53.098;18.032;2023-04-25T14:03:05;3.50;;;1.60;;
79490;SDS011;68950;53.098;18.032;2023-04-25T14:05:34;4.00;;;1.80;;
79490;SDS011;68950;53.098;18.032;2023-04-25T14:08:09;3.70;;;1.80;;
79490;SDS011;68950;53.098;18.032;2023-04-25T14:10:36;4.60;;;2.00;;
79490;SDS011;68950;53.098;18.032;2023-04-25T14:13:04;3.80;;;1.80;;
79490;SDS011;68950;53.098;18.032;2023-04-25T14:15:31;4.00;;;1.70;;
79490;SDS011;68950;53.098;18.032;2023-04-25T14:17:59;3.90;;;1.50;;
79490;SDS011;68950;53.098;18.032;2023-04-25T14:20:27;3.50;;;1.60;;
79490;SDS011;68950;53.098;18.032;2023-04-25T14:22:54;4.20;;;1.60;;
79490;SDS011;68950;53.098;18.032;2023-04-25T14:25:22;3.50;;;1.80;;
79490;SDS011;68950;53.098;18.032;2023-04-25T14:27:50;3.80;;;1.90;;
79490;SDS011;68950;53.098;18.032;2023-04-25T14:30:17;3.60;;;1.40;;
79490;SDS011;68950;53.098;18.032;2023-04-25T14:34:13;3.80;;;1.70;;
79490;SDS011;68950;53.098;18.032;2023-04-25T14:36:39;4.50;;;1.90;;
79490;SDS011;68950;53.098;18.032;2023-04-25T14:39:06;3.40;;;1.70;;
79490;SDS011;68950;53.098;18.032;2023-04-25T14:41:33;4.50;;;2.10;;
79490;SDS011;68950;53.098;18.032;2023-04-25T14:43:59;3.90;;;1.90;;
79490;SDS011;68950;53.098;18.032;2023-04-25T14:46:26;4.30;;;2.00;;
79490;SDS011;68950;53.098;18.032;2023-04-25T14:48:53;4.30;;;2.00;;
79490;SDS011;68950;53.098;18.032;2023-04-25T14:51:22;4.40;;;1.90;;
79490;SDS011;68950;53.098;18.032;2023-04-25T14:53:48;4.40;;;2.00;;
79490;SDS011;68950;53.098;18.032;2023-04-25T14:56:16;4.20;;;1.90;;
79490;SDS011;68950;53.098;18.032;2023-04-25T14:58:43;4.90;;;2.10;;
79490;SDS011;68950;53.098;18.032;2023-04-25T15:01:09;4.50;;;2.00;;
79490;SDS011;68950;53.098;18.032;2023-04-25T15:03:36;4.30;;;2.20;;
79490;SDS011;68950;53.098;18.032;2023-04-25T15:06:03;4.90;;;2.30;;
79490;SDS011;68950;53.098;18.032;2023-04-25T15:08:30;5.10;;;2.00;;
79490;SDS011;68950;53.098;18.032;2023-04-25T15:10:57;4.30;;;1.90;;
79490;SDS011;68950;53.098;18.032;2023-04-25T15:13:24;4.50;;;2.10;;
79490;SDS011;68950;53.098;18.032;2023-04-25T15:15:51;4.40;;;1.90;;
79490;SDS011;68950;53.098;18.032;2023-04-25T15:18:21;3.80;;;1.60;;
79490;SDS011;68950;53.098;18.032;2023-04-25T15:20:50;4.50;;;2.30;;
79490;SDS011;68950;53.098;18.032;2023-04-25T15:23:18;4.30;;;1.90;;
79490;SDS011;68950;53.098;18.032;2023-04-25T15:25:46;4.20;;;2.00;;
79490;SDS011;68950;53.098;18.032;2023-04-25T15:28:13;3.80;;;1.80;;
79490;SDS011;68950;53.098;18.032;2023-04-25T15:30:43;4.20;;;1.90;;
79490;SDS011;68950;53.098;18.032;2023-04-25T15:33:10;3.70;;;1.80;;
79490;SDS011;68950;53.098;18.032;2023-04-25T15:35:36;4.90;;;1.60;;
79490;SDS011;68950;53.098;18.032;2023-04-25T15:38:03;3.70;;;1.60;;
79490;SDS011;68950;53.098;18.032;2023-04-25T15:40:30;4.40;;;1.80;;
79490;SDS011;68950;53.098;18.032;2023-04-25T15:42:57;4.50;;;1.90;;
79490;SDS011;68950;53.098;18.032;2023-04-25T15:45:25;4.80;;;2.20;;
79490;SDS011;68950;53.098;18.032;2023-04-25T15:47:54;3.50;;;1.60;;
79490;SDS011;68950;53.098;18.032;2023-04-25T15:50:23;3.80;;;1.70;;
79490;SDS011;68950;53.098;18.032;2023-04-25T15:52:50;4.30;;;1.80;;
79490;SDS011;68950;53.098;18.032;2023-04-25T15:55:18;4.20;;;1.80;;
79490;SDS011;68950;53.098;18.032;2023-04-25T15:57:48;3.80;;;1.50;;
79490;SDS011;68950;53.098;18.032;2023-04-25T16:00:16;3.60;;;1.50;;
79490;SDS011;68950;53.098;18.032;2023-04-25T16:02:45;4.30;;;1.90;;
79490;SDS011;68950;53.098;18.032;2023-04-25T16:05:13;4.30;;;2.00;;
79490;SDS011;68950;53.098;18.032;2023-04-25T16:07:41;4.30;;;1.70;;
79490;SDS011;68950;53.098;18.032;2023-04-25T16:10:10;3.90;;;1.70;;
79490;SDS011;68950;53.098;18.032;2023-04-25T16:12:41;4.40;;;1.70;;
79490;SDS011;68950;53.098;18.032;2023-04-25T16:15:08;6.20;;;1.90;;
79490;SDS011;68950;53.098;18.032;2023-04-25T16:17:35;4.20;;;1.70;;
79490;SDS011;68950;53.098;18.032;2023-04-25T16:20:01;4.30;;;2.10;;
79490;SDS011;68950;53.098;18.032;2023-04-25T16:22:36;3.70;;;2.00;;
79490;SDS011;68950;53.098;18.032;2023-04-25T16:25:05;4.40;;;2.10;;
79490;SDS011;68950;53.098;18.032;2023-04-25T16:27:32;4.50;;;2.40;;
79490;SDS011;68950;53.098;18.032;2023-04-25T16:30:07;3.90;;;1.80;;
79490;SDS011;68950;53.098;18.032;2023-04-25T16:32:35;4.40;;;1.90;;
79490;SDS011;68950;53.098;18.032;2023-04-25T16:35:04;4.40;;;2.40;;
79490;SDS011;68950;53.098;18.032;2023-04-25T16:37:31;4.40;;;1.60;;
79490;SDS011;68950;53.098;18.032;2023-04-25T16:39:57;5.90;;;2.10;;
79490;SDS011;68950;53.098;18.032;2023-04-25T16:42:24;4.60;;;2.30;;
79490;SDS011;68950;53.098;18.032;2023-04-25T16:44:51;5.70;;;2.10;;
79490;SDS011;68950;53.098;18.032;2023-04-25T16:47:17;4.90;;;2.10;;
79490;SDS011;68950;53.098;18.032;2023-04-25T16:49:44;4.70;;;2.10;;
79490;SDS011;68950;53.098;18.032;2023-04-25T16:52:11;4.60;;;1.90;;
79490;SDS011;68950;53.098;18.032;2023-04-25T16:54:38;5.70;;;1.90;;
79490;SDS011;68950;53.098;18.032;2023-04-25T16:57:04;4.40;;;1.90;;
79490;SDS011;68950;53.098;18.032;2023-04-25T16:59:32;4.30;;;1.70;;
79490;SDS011;68950;53.098;18.032;2023-04-25T17:01:58;6.00;;;2.50;;
79490;SDS011;68950;53.098;18.032;2023-04-25T17:04:25;4.60;;;1.90;;
79490;SDS011;68950;53.098;18.032;2023-04-25T17:06:52;5.30;;;2.00;;
79490;SDS011;68950;53.098;18.032;2023-04-25T17:09:19;4.50;;;1.70;;
79490;SDS011;68950;53.098;18.032;2023-04-25T17:11:45;3.70;;;1.70;;
79490;SDS011;68950;53.098;18.032;2023-04-25T17:14:13;5.00;;;2.10;;
79490;SDS011;68950;53.098;18.032;2023-04-25T17:16:39;4.60;;;1.80;;
79490;SDS011;68950;53.098;18.032;2023-04-25T17:19:06;4.20;;;1.80;;
79490;SDS011;68950;53.098;18.032;2023-04-25T17:21:34;5.20;;;2.10;;
79490;SDS011;68950;53.098;18.032;2023-04-25T17:24:01;5.30;;;2.20;;
79490;SDS011;68950;53.098;18.032;2023-04-25T17:26:31;4.40;;;1.90;;
79490;SDS011;68950;53.098;18.032;2023-04-25T17:31:12;5.20;;;2.20;;
79490;SDS011;68950;53.098;18.032;2023-04-25T17:33:39;4.80;;;2.20;;
79490;SDS011;68950;53.098;18.032;2023-04-25T17:36:05;6.30;;;2.00;;
79490;SDS011;68950;53.098;18.032;2023-04-25T17:38:33;4.50;;;1.90;;
79490;SDS011;68950;53.098;18.032;2023-04-25T17:41:02;4.70;;;2.00;;
79490;SDS011;68950;53.098;18.032;2023-04-25T17:43:29;5.90;;;1.70;;
79490;SDS011;68950;53.098;18.032;2023-04-25T17:45:56;5.50;;;2.10;;
79490;SDS011;68950;53.098;18.032;2023-04-25T17:48:24;6.00;;;1.60;;
79490;SDS011;68950;53.098;18.032;2023-04-25T17:50:52;4.40;;;2.00;;
79490;SDS011;68950;53.098;18.032;2023-04-25T17:53:18;4.50;;;1.80;;
79490;SDS011;68950;53.098;18.032;2023-04-25T17:55:45;7.10;;;2.30;;
79490;SDS011;68950;53.098;18.032;2023-04-25T17:58:11;4.10;;;1.80;;
79490;SDS011;68950;53.098;18.032;2023-04-25T18:00:38;5.10;;;2.10;;
79490;SDS011;68950;53.098;18.032;2023-04-25T18:03:05;5.20;;;2.20;;
79490;SDS011;68950;53.098;18.032;2023-04-25T18:05:32;5.00;;;1.70;;
79490;SDS011;68950;53.098;18.032;2023-04-25T18:07:59;4.60;;;1.70;;
79490;SDS011;68950;53.098;18.032;2023-04-25T18:10:26;4.80;;;1.90;;
79490;SDS011;68950;53.098;18.032;2023-04-25T18:12:53;4.50;;;2.00;;
79490;SDS011;68950;53.098;18.032;2023-04-25T18:15:20;4.90;;;1.90;;
79490;SDS011;68950;53.098;18.032;2023-04-25T18:17:47;4.80;;;2.00;;
79490;SDS011;68950;53.098;18.032;2023-04-25T18:20:14;5.60;;;2.10;;
79490;SDS011;68950;53.098;18.032;2023-04-25T18:22:44;4.80;;;2.20;;
79490;SDS011;68950;53.098;18.032;2023-04-25T18:25:11;6.00;;;2.70;;
79490;SDS011;68950;53.098;18.032;2023-04-25T18:27:39;3.70;;;1.80;;
79490;SDS011;68950;53.098;18.032;2023-04-25T18:30:09;5.00;;;2.10;;
79490;SDS011;68950;53.098;18.032;2023-04-25T18:32:36;4.80;;;2.00;;
79490;SDS011;68950;53.098;18.032;2023-04-25T18:35:04;4.40;;;2.10;;
79490;SDS011;68950;53.098;18.032;2023-04-25T18:37:31;5.10;;;2.10;;
79490;SDS011;68950;53.098;18.032;2023-04-25T18:39:57;4.50;;;2.00;;
79490;SDS011;68950;53.098;18.032;2023-04-25T18:42:24;4.60;;;2.10;;
79490;SDS011;68950;53.098;18.032;2023-04-25T18:44:51;6.80;;;2.10;;
79490;SDS011;68950;53.098;18.032;2023-04-25T18:47:17;4.40;;;1.70;;
79490;SDS011;68950;53.098;18.032;2023-04-25T18:49:44;4.60;;;2.00;;
79490;SDS011;68950;53.098;18.032;2023-04-25T18:52:11;4.80;;;2.10;;
79490;SDS011;68950;53.098;18.032;2023-04-25T18:54:40;5.70;;;1.80;;
79490;SDS011;68950;53.098;18.032;2023-04-25T18:57:07;5.00;;;1.90;;
79490;SDS011;68950;53.098;18.032;2023-04-25T18:59:34;7.40;;;2.10;;
79490;SDS011;68950;53.098;18.032;2023-04-25T19:02:01;5.00;;;2.10;;
79490;SDS011;68950;53.098;18.032;2023-04-25T19:04:31;5.30;;;2.40;;
79490;SDS011;68950;53.098;18.032;2023-04-25T19:06:57;7.00;;;2.80;;
79490;SDS011;68950;53.098;18.032;2023-04-25T19:09:25;5.30;;;2.70;;
79490;SDS011;68950;53.098;18.032;2023-04-25T19:11:51;6.00;;;2.80;;
79490;SDS011;68950;53.098;18.032;2023-04-25T19:14:18;5.50;;;3.10;;
79490;SDS011;68950;53.098;18.032;2023-04-25T19:16:45;5.60;;;2.90;;
79490;SDS011;68950;53.098;18.032;2023-04-25T19:19:11;5.10;;;2.60;;
79490;SDS011;68950;53.098;18.032;2023-04-25T19:21:38;6.00;;;3.00;;
79490;SDS011;68950;53.098;18.032;2023-04-25T19:24:05;5.10;;;2.70;;
79490;SDS011;68950;53.098;18.032;2023-04-25T19:26:32;8.30;;;2.70;;
79490;SDS011;68950;53.098;18.032;2023-04-25T19:29:08;4.80;;;2.60;;
79490;SDS011;68950;53.098;18.032;2023-04-25T19:31:36;7.20;;;3.00;;
79490;SDS011;68950;53.098;18.032;2023-04-25T19:34:05;6.40;;;2.80;;
79490;SDS011;68950;53.098;18.032;2023-04-25T19:36:36;5.00;;;2.50;;
79490;SDS011;68950;53.098;18.032;2023-04-25T19:39:03;5.40;;;2.70;;
79490;SDS011;68950;53.098;18.032;2023-04-25T19:41:36;4.90;;;2.60;;
79490;SDS011;68950;53.098;18.032;2023-04-25T19:44:05;5.80;;;2.60;;
79490;SDS011;68950;53.098;18.032;2023-04-25T19:46:34;5.20;;;2.70;;
79490;SDS011;68950;53.098;18.032;2023-04-25T19:49:02;5.60;;;2.90;;
79490;SDS011;68950;53.098;18.032;2023-04-25T19:51:34;5.10;;;2.60;;
79490;SDS011;68950;53.098;18.032;2023-04-25T19:54:01;6.00;;;2.80;;
79490;SDS011;68950;53.098;18.032;2023-04-25T19:56:28;4.90;;;2.70;;
79490;SDS011;68950;53.098;18.032;2023-04-25T19:58:55;5.30;;;2.50;;
79490;SDS011;68950;53.098;18.032;2023-04-25T20:01:23;5.00;;;2.30;;
79490;SDS011;68950;53.098;18.032;2023-04-25T20:03:50;6.30;;;2.60;;
79490;SDS011;68950;53.098;18.032;2023-04-25T20:06:17;5.80;;;2.70;;
79490;SDS011;68950;53.098;18.032;2023-04-25T20:08:44;4.70;;;2.50;;
79490;SDS011;68950;53.098;18.032;2023-04-25T20:11:12;5.70;;;2.20;;
79490;SDS011;68950;53.098;18.032;2023-04-25T20:13:40;6.10;;;2.70;;
79490;SDS011;68950;53.098;18.032;2023-04-25T20:16:07;5.70;;;2.90;;
79490;SDS011;68950;53.098;18.032;2023-04-25T20:18:33;5.50;;;2.40;;
79490;SDS011;68950;53.098;18.032;2023-04-25T20:21:00;6.60;;;3.20;;
79490;SDS011;68950;53.098;18.032;2023-04-25T20:23:30;5.90;;;2.60;;
79490;SDS011;68950;53.098;18.032;2023-04-25T20:25:57;6.70;;;2.90;;
79490;SDS011;68950;53.098;18.032;2023-04-25T20:28:23;6.80;;;2.90;;
79490;SDS011;68950;53.098;18.032;2023-04-25T20:30:50;6.70;;;3.00;;
79490;SDS011;68950;53.098;18.032;2023-04-25T20:33:17;8.20;;;3.30;;
79490;SDS011;68950;53.098;18.032;2023-04-25T20:35:44;9.00;;;3.50;;
79490;SDS011;68950;53.098;18.032;2023-04-25T20:38:11;8.20;;;3.80;;
79490;SDS011;68950;53.098;18.032;2023-04-25T20:40:38;6.70;;;3.00;;
79490;SDS011;68950;53.098;18.032;2023-04-25T20:43:05;8.30;;;3.50;;
79490;SDS011;68950;53.098;18.032;2023-04-25T20:45:32;7.40;;;3.50;;
79490;SDS011;68950;53.098;18.032;2023-04-25T20:47:59;7.70;;;3.10;;
79490;SDS011;68950;53.098;18.032;2023-04-25T20:50:31;6.70;;;3.10;;
79490;SDS011;68950;53.098;18.032;2023-04-25T20:52:58;8.20;;;3.30;;
79490;SDS011;68950;53.098;18.032;2023-04-25T20:55:25;6.80;;;3.20;;
79490;SDS011;68950;53.098;18.032;2023-04-25T20:57:52;7.00;;;2.80;;
79490;SDS011;68950;53.098;18.032;2023-04-25T21:00:18;6.40;;;3.20;;
79490;SDS011;68950;53.098;18.032;2023-04-25T21:02:52;6.50;;;2.90;;
79490;SDS011;68950;53.098;18.032;2023-04-25T21:05:20;6.50;;;3.10;;
79490;SDS011;68950;53.098;18.032;2023-04-25T21:07:50;6.50;;;3.10;;
79490;SDS011;68950;53.098;18.032;2023-04-25T21:10:20;6.50;;;2.90;;
79490;SDS011;68950;53.098;18.032;2023-04-25T21:12:47;7.50;;;3.10;;
79490;SDS011;68950;53.098;18.032;2023-04-25T21:15:15;7.20;;;3.40;;
79490;SDS011;68950;53.098;18.032;2023-04-25T21:17:48;6.90;;;3.30;;
79490;SDS011;68950;53.098;18.032;2023-04-25T21:20:18;7.00;;;2.80;;
79490;SDS011;68950;53.098;18.032;2023-04-25T21:22:47;5.70;;;2.60;;
79490;SDS011;68950;53.098;18.032;2023-04-25T21:25:18;6.80;;;3.20;;
79490;SDS011;68950;53.098;18.032;2023-04-25T21:27:47;7.10;;;3.00;;
79490;SDS011;68950;53.098;18.032;2023-04-25T21:30:20;7.10;;;3.00;;
79490;SDS011;68950;53.098;18.032;2023-04-25T21:32:48;8.20;;;3.70;;
79490;SDS011;68950;53.098;18.032;2023-04-25T21:35:18;7.00;;;2.90;;
79490;SDS011;68950;53.098;18.032;2023-04-25T21:37:45;6.30;;;2.60;;
79490;SDS011;68950;53.098;18.032;2023-04-25T21:40:13;6.10;;;3.10;;
79490;SDS011;68950;53.098;18.032;2023-04-25T21:42:40;6.10;;;2.90;;
79490;SDS011;68950;53.098;18.032;2023-04-25T21:45:09;6.90;;;3.00;;
79490;SDS011;68950;53.098;18.032;2023-04-25T21:47:36;7.30;;;3.20;;
79490;SDS011;68950;53.098;18.032;2023-04-25T21:50:04;7.50;;;2.80;;
79490;SDS011;68950;53.098;18.032;2023-04-25T21:52:32;7.00;;;2.80;;
79490;SDS011;68950;53.098;18.032;2023-04-25T21:55:01;7.70;;;3.20;;
79490;SDS011;68950;53.098;18.032;2023-04-25T21:57:27;6.00;;;2.90;;
79490;SDS011;68950;53.098;18.032;2023-04-25T21:59:54;7.60;;;2.70;;
79490;SDS011;68950;53.098;18.032;2023-04-25T22:02:21;6.50;;;2.90;;
79490;SDS011;68950;53.098;18.032;2023-04-25T22:04:48;7.00;;;2.60;;
79490;SDS011;68950;53.098;18.032;2023-04-25T22:07:15;6.10;;;2.70;;
79490;SDS011;68950;53.098;18.032;2023-04-25T22:09:42;7.20;;;3.00;;
79490;SDS011;68950;53.098;18.032;2023-04-25T22:12:09;5.90;;;2.80;;
79490;SDS011;68950;53.098;18.032;2023-04-25T22:14:36;6.40;;;2.80;;
79490;SDS011;68950;53.098;18.032;2023-04-25T22:17:03;6.60;;;2.80;;
79490;SDS011;68950;53.098;18.032;2023-04-25T22:19:30;6.50;;;2.50;;
79490;SDS011;68950;53.098;18.032;2023-04-25T22:21:57;6.50;;;2.70;;
79490;SDS011;68950;53.098;18.032;2023-04-25T22:24:24;8.30;;;3.00;;
79490;SDS011;68950;53.098;18.032;2023-04-25T22:26:58;6.00;;;2.50;;
79490;SDS011;68950;53.098;18.032;2023-04-25T22:29:24;7.00;;;2.80;;
79490;SDS011;68950;53.098;18.032;2023-04-25T22:31:51;6.10;;;2.60;;
79490;SDS011;68950;53.098;18.032;2023-04-25T22:34:18;6.20;;;2.70;;
79490;SDS011;68950;53.098;18.032;2023-04-25T22:36:45;6.50;;;2.70;;
79490;SDS011;68950;53.098;18.032;2023-04-25T22:39:12;5.10;;;2.30;;
79490;SDS011;68950;53.098;18.032;2023-04-25T22:41:41;5.10;;;2.40;;
79490;SDS011;68950;53.098;18.032;2023-04-25T22:44:08;5.40;;;2.70;;
79490;SDS011;68950;53.098;18.032;2023-04-25T22:46:34;5.80;;;2.70;;
79490;SDS011;68950;53.098;18.032;2023-04-25T22:49:01;5.30;;;2.80;;
79490;SDS011;68950;53.098;18.032;2023-04-25T22:51:28;6.00;;;2.80;;